Time;durP1;ratioP1;P1;durP2;ratioP2;P2;SDS_P1;SDS_P2;PMS_P1;PMS_P2;Temp;Humidity;BMP_temperature;BMP_pressure;BME280_temperature;BME280_humidity;BME280_pressure;Samples;Min_cycle;Max_cycle;Signal;HPM_P1;HPM_P2
2021/04/16 00:00:07;;;;;;;15.32;9.25;;;;;;;7.51;61.62;102544.53;5051215;28;20041;-46
2021/04/16 00:02:33;;;;;;;15.20;8.45;;;;;;;7.46;61.97;102551.97;5050964;28;20572;-45
2021/04/16 00:05:00;;;;;;;17.10;9.50;;;;;;;7.47;62.11;102559.13;5049923;28;20554;-46
2021/04/16 00:07:26;;;;;;;14.02;8.02;;;;;;;7.48;61.80;102550.59;5051088;28;20047;-50
2021/04/16 00:09:53;;;;;;;13.05;8.40;;;;;;;7.44;62.03;102549.50;5050432;28;20518;-47
2021/04/16 00:12:19;;;;;;;18.65;9.20;;;;;;;7.39;62.23;102552.25;5050478;28;20067;-47
2021/04/16 00:14:45;;;;;;;13.50;8.00;;;;;;;7.33;62.49;102558.91;5050958;28;20045;-45
2021/04/16 00:17:12;;;;;;;16.70;10.18;;;;;;;7.28;62.57;102558.94;5059660;28;20098;-46
2021/04/16 00:19:38;;;;;;;14.93;10.35;;;;;;;7.27;62.82;102560.03;5058107;28;20119;-46
2021/04/16 00:22:05;;;;;;;13.27;8.75;;;;;;;7.23;62.72;102556.16;5053021;28;20068;-49
2021/04/16 00:24:31;;;;;;;14.32;8.77;;;;;;;7.19;63.14;102557.84;5052335;28;20144;-50
2021/04/16 00:26:57;;;;;;;20.67;10.27;;;;;;;7.17;63.41;102554.53;5054031;28;20116;-46
2021/04/16 00:29:24;;;;;;;15.80;8.90;;;;;;;7.17;63.19;102554.53;5064006;28;20139;-47
2021/04/16 00:31:50;;;;;;;18.13;9.25;;;;;;;7.15;63.41;102545.69;5054219;28;20077;-49
2021/04/16 00:34:22;;;;;;;13.27;8.25;;;;;;;7.14;63.75;102555.09;5063872;28;20048;-46
2021/04/16 00:36:49;;;;;;;13.98;8.43;;;;;;;7.14;63.62;102544.91;5070740;28;20075;-49
2021/04/16 00:39:18;;;;;;;15.48;8.82;;;;;;;7.14;63.49;102541.31;5055206;28;20468;-46
2021/04/16 00:41:46;;;;;;;15.65;10.75;;;;;;;7.15;63.72;102537.44;5056395;28;20036;-48
2021/04/16 00:44:12;;;;;;;14.60;9.10;;;;;;;7.17;63.64;102538.00;5063489;28;20071;-47
2021/04/16 00:46:55;;;;;;;14.68;9.35;;;;;;;7.10;63.61;102542.97;5057146;28;20132;-46
2021/04/16 00:49:26;;;;;;;18.75;9.68;;;;;;;7.14;63.99;102536.66;5060961;28;20043;-46
2021/04/16 00:52:02;;;;;;;15.68;8.77;;;;;;;7.14;63.72;102533.88;5067104;28;20766;-46
2021/04/16 00:54:38;;;;;;;13.00;8.65;;;;;;;7.16;63.75;102536.34;5062613;28;20551;-47
2021/04/16 00:57:07;;;;;;;19.35;8.82;;;;;;;7.11;63.72;102528.09;5071635;28;20561;-50
2021/04/16 00:59:37;;;;;;;17.00;8.85;;;;;;;7.18;63.64;102534.13;5059666;28;20107;-46
2021/04/16 01:02:04;;;;;;;14.98;8.27;;;;;;;7.34;63.06;102533.00;5054258;28;20041;-50
2021/04/16 01:04:32;;;;;;;19.80;9.43;;;;;;;7.34;63.22;102527.47;5053369;28;20427;-47
2021/04/16 01:07:00;;;;;;;15.25;9.70;;;;;;;7.24;62.94;102520.09;5054116;28;20048;-46
2021/04/16 01:09:28;;;;;;;15.18;9.15;;;;;;;7.13;63.53;102526.72;5054150;28;20041;-46
2021/04/16 01:11:55;;;;;;;19.23;10.40;;;;;;;7.04;63.75;102522.06;5053623;28;20041;-48
2021/04/16 01:14:22;;;;;;;17.90;11.15;;;;;;;6.98;64.02;102525.91;5057337;28;20037;-47
2021/04/16 01:16:51;;;;;;;20.85;11.85;;;;;;;6.88;63.99;102523.19;5063007;28;20132;-46
2021/04/16 01:19:47;;;;;;;17.45;10.82;;;;;;;6.75;64.83;102525.38;5065604;28;20638;-48
2021/04/16 01:22:20;;;;;;;18.92;11.05;;;;;;;6.81;64.31;102528.13;5046333;28;20121;-46
2021/04/16 01:24:47;;;;;;;25.15;13.00;;;;;;;6.70;64.52;102528.13;5068656;28;20053;-46
2021/04/16 01:27:13;;;;;;;26.80;12.13;;;;;;;6.65;64.52;102525.41;5052803;28;20613;-48
2021/04/16 01:29:45;;;;;;;24.17;14.13;;;;;;;6.61;64.63;102529.81;5053360;28;20157;-48
2021/04/16 01:32:25;;;;;;;25.80;12.52;;;;;;;6.62;64.65;102525.09;5059639;28;20083;-48
2021/04/16 01:34:53;;;;;;;22.92;13.32;;;;;;;6.57;64.51;102522.34;5053141;28;20045;-47
2021/04/16 01:37:20;;;;;;;26.05;12.85;;;;;;;6.51;64.96;102527.03;5053827;28;20041;-46
2021/04/16 01:39:46;;;;;;;25.30;12.23;;;;;;;6.43;64.88;102524.84;5057379;28;20135;-47
2021/04/16 01:42:13;;;;;;;25.25;13.85;;;;;;;6.43;64.63;102524.84;5053701;28;20041;-47
2021/04/16 01:44:43;;;;;;;20.48;12.55;;;;;;;6.34;65.26;102517.41;5068720;28;20113;-48
2021/04/16 01:47:12;;;;;;;21.45;11.73;;;;;;;6.26;65.40;102524.28;5065946;28;20497;-46
2021/04/16 01:49:45;;;;;;;25.60;13.23;;;;;;;6.19;65.45;102520.97;5052990;28;20045;-47
2021/04/16 01:52:17;;;;;;;21.75;11.95;;;;;;;6.16;65.36;102527.03;5060622;28;20041;-46
2021/04/16 01:54:47;;;;;;;20.92;11.85;;;;;;;6.14;65.32;102527.28;5052980;28;20029;-47
2021/04/16 01:57:20;;;;;;;20.27;11.68;;;;;;;6.13;65.10;102527.56;5053177;28;20152;-48
2021/04/16 01:59:48;;;;;;;25.10;12.68;;;;;;;6.08;65.37;102519.31;5061929;28;20130;-46
2021/04/16 02:02:19;;;;;;;21.83;11.95;;;;;;;6.00;65.69;102522.59;5058063;28;20132;-46
2021/04/16 02:04:46;;;;;;;19.50;12.07;;;;;;;5.89;65.64;102518.97;5055007;28;20044;-49
2021/04/16 02:07:12;;;;;;;20.73;11.85;;;;;;;5.89;65.66;102529.16;5072801;28;20494;-47
2021/04/16 02:09:40;;;;;;;31.30;13.85;;;;;;;5.90;65.29;102522.56;5054172;28;20041;-47
2021/04/16 02:12:09;;;;;;;26.33;13.68;;;;;;;5.88;65.50;102525.56;5071333;28;20044;-45
2021/04/16 02:14:39;;;;;;;25.17;14.98;;;;;;;5.87;65.27;102518.44;5071612;28;20090;-46
2021/04/16 02:17:09;;;;;;;28.23;14.25;;;;;;;5.91;65.42;102515.94;5071110;28;20102;-45
2021/04/16 02:19:37;;;;;;;22.25;12.20;;;;;;;5.83;65.90;102509.03;5054947;28;20037;-49
2021/04/16 02:22:06;;;;;;;26.35;14.80;;;;;;;5.77;65.61;102501.06;5064350;28;20048;-47
2021/04/16 02:24:33;;;;;;;22.20;13.65;;;;;;;5.71;65.49;102508.47;5065975;28;20114;-45
2021/04/16 02:26:59;;;;;;;25.88;13.00;;;;;;;5.67;65.79;102512.00;5052731;28;20098;-47
2021/04/16 02:29:26;;;;;;;19.63;11.80;;;;;;;5.60;65.94;102500.44;5063479;28;20123;-45
2021/04/16 02:31:52;;;;;;;24.50;12.85;;;;;;;5.57;65.98;102506.47;5050619;28;20528;-47
2021/04/16 02:34:24;;;;;;;22.35;14.05;;;;;;;5.53;65.79;102507.00;5052643;28;20103;-46
2021/04/16 02:36:53;;;;;;;22.40;11.45;;;;;;;5.53;65.73;102509.75;5055017;28;20076;-47
2021/04/16 02:39:21;;;;;;;23.30;11.80;;;;;;;5.56;65.43;102507.56;5060293;28;20082;-46
2021/04/16 02:41:47;;;;;;;19.92;12.55;;;;;;;5.53;65.64;102507.00;5052116;28;20053;-46
2021/04/16 02:44:14;;;;;;;22.30;13.82;;;;;;;5.49;65.56;102503.16;5051961;28;20049;-47
2021/04/16 02:46:40;;;;;;;21.17;12.05;;;;;;;5.49;65.62;102499.56;5058637;28;20044;-48
2021/04/16 02:49:07;;;;;;;22.52;11.65;;;;;;;5.45;65.49;102502.00;5054655;28;20041;-47
2021/04/16 02:51:33;;;;;;;24.42;13.55;;;;;;;5.38;65.68;102506.94;5081315;28;20101;-47
2021/04/16 02:54:00;;;;;;;18.90;12.07;;;;;;;5.34;65.67;102503.09;5080356;28;20045;-47
2021/04/16 02:56:27;;;;;;;23.23;12.30;;;;;;;5.30;65.96;102498.38;5052383;28;20068;-47
2021/04/16 02:58:56;;;;;;;21.65;13.60;;;;;;;5.27;65.59;102498.94;5061789;28;20053;-46
2021/04/16 03:01:22;;;;;;;21.70;12.38;;;;;;;5.23;65.63;102495.88;5051968;28;20095;-46
2021/04/16 03:03:48;;;;;;;22.38;12.68;;;;;;;5.20;65.96;102493.66;5064692;28;20234;-45
2021/04/16 03:06:15;;;;;;;20.55;13.43;;;;;;;5.22;65.75;102494.22;5052030;28;20494;-46
2021/04/16 03:08:41;;;;;;;22.42;11.48;;;;;;;5.18;66.01;102486.78;5055448;28;20049;-47
2021/04/16 03:11:09;;;;;;;19.95;13.55;;;;;;;5.19;65.55;102493.94;5051497;28;20099;-46
2021/04/16 03:13:37;;;;;;;22.38;13.40;;;;;;;5.13;66.10;102500.50;5051312;28;20053;-47
2021/04/16 03:16:04;;;;;;;31.30;15.07;;;;;;;5.07;66.00;102490.56;5051271;28;20053;-47
2021/04/16 03:18:31;;;;;;;23.35;12.23;;;;;;;5.03;66.02;102493.00;5066807;28;20094;-49
2021/04/16 03:20:57;;;;;;;20.95;14.20;;;;;;;5.05;66.04;102485.38;5070875;28;20079;-47
2021/04/16 03:23:23;;;;;;;16.55;10.57;;;;;;;5.11;65.73;102494.44;5083708;28;20568;-46
2021/04/16 03:25:50;;;;;;;20.05;11.23;;;;;;;5.06;65.94;102489.75;5051408;28;20064;-47
2021/04/16 03:28:16;;;;;;;20.85;12.27;;;;;;;5.07;65.70;102485.91;5070279;28;20098;-47
2021/04/16 03:30:43;;;;;;;21.20;12.30;;;;;;;5.03;65.56;102481.22;5053052;28;20099;-47
2021/04/16 03:33:09;;;;;;;18.95;11.35;;;;;;;4.96;65.76;102484.19;5068866;28;20090;-46
2021/04/16 03:35:36;;;;;;;17.13;10.88;;;;;;;4.93;65.79;102490.22;5069127;28;20466;-49
2021/04/16 03:38:02;;;;;;;20.98;11.27;;;;;;;4.88;65.93;102484.69;5067677;28;20070;-46
2021/04/16 03:40:31;;;;;;;21.10;11.68;;;;;;;4.85;66.00;102483.31;5064721;28;20490;-47
2021/04/16 03:42:58;;;;;;;19.63;11.05;;;;;;;4.83;65.81;102481.91;5051367;28;20077;-46
2021/04/16 03:45:25;;;;;;;21.58;11.32;;;;;;;4.75;65.88;102477.75;5051372;28;20442;-48
2021/04/16 03:47:52;;;;;;;20.83;10.15;;;;;;;4.69;66.04;102477.97;5051533;28;20347;-46
2021/04/16 03:50:23;;;;;;;20.33;10.98;;;;;;;4.71;66.09;102475.81;5051152;28;20041;-48
2021/04/16 03:52:49;;;;;;;14.93;9.23;;;;;;;4.70;66.02;102479.63;5051220;28;20068;-47
2021/04/16 03:55:21;;;;;;;22.13;10.57;;;;;;;4.74;65.74;102472.53;5062483;28;20037;-47
2021/04/16 03:57:47;;;;;;;17.73;10.13;;;;;;;4.67;65.75;102472.75;5066654;28;20099;-46
2021/04/16 04:00:21;;;;;;;19.30;11.23;;;;;;;4.62;66.04;102469.16;5072883;28;20074;-48
2021/04/16 04:02:48;;;;;;;18.80;10.60;;;;;;;4.61;65.73;102470.22;5073127;28;20556;-49
2021/04/16 04:05:16;;;;;;;18.88;10.50;;;;;;;4.57;66.13;102469.13;5054654;28;20555;-47
2021/04/16 04:07:42;;;;;;;21.50;10.38;;;;;;;4.55;65.69;102469.41;5053978;28;20036;-46
2021/04/16 04:10:09;;;;;;;16.90;10.15;;;;;;;4.51;65.73;102467.41;5054903;28;20167;-47
2021/04/16 04:12:35;;;;;;;19.25;10.73;;;;;;;4.49;65.88;102477.84;5054265;28;20486;-49
2021/04/16 04:15:03;;;;;;;19.48;10.73;;;;;;;4.46;65.85;102462.72;5055914;28;20087;-47
2021/04/16 04:17:33;;;;;;;18.25;11.05;;;;;;;4.53;65.80;102471.56;5056349;28;20033;-48
2021/04/16 04:20:00;;;;;;;18.70;11.95;;;;;;;4.47;65.74;102467.13;5054577;28;20072;-45
2021/04/16 04:22:26;;;;;;;17.52;10.07;;;;;;;4.43;65.93;102467.91;5055952;28;20116;-48
2021/04/16 04:24:53;;;;;;;21.65;11.70;;;;;;;4.41;65.85;102470.09;5054417;28;20052;-48
2021/04/16 04:27:20;;;;;;;22.88;13.10;;;;;;;4.35;66.16;102471.97;5054652;28;20049;-49
2021/04/16 04:29:46;;;;;;;16.15;10.02;;;;;;;4.38;66.19;102476.09;5054783;28;20083;-49
2021/04/16 04:32:13;;;;;;;19.50;11.70;;;;;;;4.40;65.80;102480.22;5054960;28;20033;-47
2021/04/16 04:34:40;;;;;;;24.98;12.48;;;;;;;4.39;65.75;102483.25;5066042;28;20433;-49
2021/04/16 04:37:09;;;;;;;20.13;11.50;;;;;;;4.30;66.26;102480.97;5062551;28;20099;-47
2021/04/16 04:39:40;;;;;;;19.83;11.00;;;;;;;4.29;66.05;102476.56;5054175;28;20080;-49
2021/04/16 04:42:07;;;;;;;19.77;11.90;;;;;;;4.25;66.11;102482.84;5057001;28;20132;-47
2021/04/16 04:44:34;;;;;;;18.33;10.25;;;;;;;4.27;66.32;102481.50;5053251;28;20142;-46
2021/04/16 04:47:00;;;;;;;18.52;11.20;;;;;;;4.24;66.09;102482.00;5054642;28;20441;-47
2021/04/16 04:49:27;;;;;;;24.83;12.95;;;;;;;4.26;66.10;102485.31;5062959;28;20053;-47
2021/04/16 04:52:27;;;;;;;18.58;12.10;;;;;;;4.26;66.14;102490.78;5064357;28;20041;-48
2021/04/16 04:54:56;;;;;;;18.98;11.13;;;;;;;4.24;66.33;102484.75;5038749;28;20449;-48
2021/04/16 04:57:25;;;;;;;18.90;10.77;;;;;;;4.21;66.09;102493.50;5063238;28;20068;-49
2021/04/16 04:59:52;;;;;;;22.60;11.25;;;;;;;4.21;66.46;102490.75;5052715;28;20087;-51
2021/04/16 05:02:20;;;;;;;21.50;11.73;;;;;;;4.19;66.54;102497.59;5053893;28;20045;-49
2021/04/16 05:04:47;;;;;;;19.73;11.57;;;;;;;4.26;66.19;102496.28;5053963;28;20049;-46
2021/04/16 05:07:14;;;;;;;21.08;12.18;;;;;;;4.21;66.43;102504.47;5054414;28;20044;-46
2021/04/16 05:09:40;;;;;;;22.45;12.45;;;;;;;4.22;66.34;102494.31;5053097;28;20146;-47
2021/04/16 05:12:07;;;;;;;16.75;11.45;;;;;;;4.18;66.60;102501.44;5052381;28;20081;-47
2021/04/16 05:14:34;;;;;;;22.23;13.10;;;;;;;4.14;66.58;102503.84;5053370;28;20052;-47
2021/04/16 05:17:03;;;;;;;21.90;12.68;;;;;;;4.11;66.75;102498.88;5054246;28;20048;-48
2021/04/16 05:19:30;;;;;;;16.83;11.32;;;;;;;4.14;66.61;102498.38;5053523;28;20048;-45
2021/04/16 05:22:01;;;;;;;18.27;10.95;;;;;;;4.10;66.83;102497.22;5064139;28;20413;-46
2021/04/16 05:24:31;;;;;;;20.15;12.00;;;;;;;4.06;66.98;102492.53;5065757;28;20037;-45
2021/04/16 05:27:09;;;;;;;24.60;12.57;;;;;;;4.06;66.96;102485.13;5052992;28;20051;-48
2021/04/16 05:29:36;;;;;;;17.20;10.70;;;;;;;4.07;66.94;102497.78;5058396;28;20391;-46
2021/04/16 05:32:03;;;;;;;28.80;13.68;;;;;;;4.19;66.68;102490.19;5071863;28;20067;-47
2021/04/16 05:34:30;;;;;;;19.20;10.65;;;;;;;4.14;66.42;102495.63;5061489;28;20047;-47
2021/04/16 05:36:57;;;;;;;19.13;10.35;;;;;;;4.12;67.19;102486.00;5052619;28;20048;-49
2021/04/16 05:39:23;;;;;;;22.75;10.95;;;;;;;4.15;67.14;102494.56;5059886;28;20040;-49
2021/04/16 05:41:49;;;;;;;16.52;11.60;;;;;;;4.17;67.04;102500.59;5062619;28;20041;-47
2021/04/16 05:44:16;;;;;;;17.65;11.10;;;;;;;4.19;67.05;102498.41;5053235;28;20064;-46
2021/04/16 05:46:42;;;;;;;22.20;14.48;;;;;;;4.22;67.15;102505.28;5053138;28;20095;-46
2021/04/16 05:49:10;;;;;;;19.92;11.65;;;;;;;4.32;67.33;102503.47;5052926;28;20483;-44
2021/04/16 05:51:36;;;;;;;26.27;12.05;;;;;;;4.41;66.96;102495.59;5070670;28;20047;-46
2021/04/16 05:54:04;;;;;;;17.52;11.00;;;;;;;4.46;67.30;102494.81;5051257;28;20045;-45
2021/04/16 05:56:31;;;;;;;17.80;11.02;;;;;;;4.44;67.53;102502.47;5053833;28;20398;-45
2021/04/16 05:58:57;;;;;;;18.20;10.43;;;;;;;4.50;67.48;102498.69;5055126;28;20037;-49
2021/04/16 06:01:23;;;;;;;21.40;11.38;;;;;;;4.57;67.42;102507.53;5061472;28;20056;-45
2021/04/16 06:03:49;;;;;;;17.70;11.30;;;;;;;4.60;67.42;102505.09;5060038;28;20098;-45
2021/04/16 06:06:16;;;;;;;20.73;10.68;;;;;;;4.61;67.44;102508.63;5051994;28;20053;-45
2021/04/16 06:08:43;;;;;;;19.00;11.02;;;;;;;4.66;67.81;102509.50;5057417;28;20169;-46
2021/04/16 06:11:11;;;;;;;17.33;10.55;;;;;;;4.73;67.64;102509.28;5064296;28;20047;-47
2021/04/16 06:13:38;;;;;;;16.60;10.15;;;;;;;4.74;67.90;102514.50;5052826;28;20486;-46
2021/04/16 06:16:07;;;;;;;21.67;10.60;;;;;;;4.80;67.57;102518.13;5052470;28;20498;-45
2021/04/16 06:18:34;;;;;;;16.25;9.88;;;;;;;4.85;67.94;102509.91;5053761;28;20045;-45
2021/04/16 06:21:00;;;;;;;17.25;9.95;;;;;;;4.90;67.76;102510.78;5059303;28;20055;-44
2021/04/16 06:23:27;;;;;;;14.13;9.25;;;;;;;4.96;67.52;102513.56;5081789;28;20490;-47
2021/04/16 06:25:54;;;;;;;18.50;10.50;;;;;;;5.06;67.75;102511.69;5052070;28;20406;-44
2021/04/16 06:28:20;;;;;;;16.80;9.48;;;;;;;5.11;67.67;102519.97;5052869;28;20037;-49
2021/04/16 06:30:47;;;;;;;15.93;9.05;;;;;;;5.20;67.75;102515.63;5056906;28;20521;-45
2021/04/16 06:33:13;;;;;;;18.70;9.98;;;;;;;5.28;67.62;102517.88;5051734;28;20087;-44
2021/04/16 06:35:45;;;;;;;18.10;9.55;;;;;;;5.37;67.24;102518.19;5052413;28;20037;-44
2021/04/16 06:38:14;;;;;;;16.88;8.95;;;;;;;5.45;67.12;102518.50;5052089;28;20045;-45
2021/04/16 06:40:47;;;;;;;17.33;8.82;;;;;;;5.53;66.98;102520.72;5055736;28;20049;-48
2021/04/16 06:43:14;;;;;;;19.55;8.57;;;;;;;5.65;66.76;102514.19;5052170;28;20052;-45
2021/04/16 06:45:40;;;;;;;19.90;9.10;;;;;;;5.74;66.86;102524.41;5051529;28;20041;-45
2021/04/16 06:48:09;;;;;;;16.95;8.27;;;;;;;5.84;66.52;102520.84;5067388;28;20060;-49
2021/04/16 06:50:41;;;;;;;18.13;8.40;;;;;;;5.91;66.10;102524.19;5055131;28;20044;-49
2021/04/16 06:53:11;;;;;;;18.38;8.50;;;;;;;5.96;66.01;102529.69;5071100;28;20044;-44
2021/04/16 06:56:06;;;;;;;15.07;8.25;;;;;;;6.04;66.18;102523.69;5067181;28;20044;-49
2021/04/16 06:58:51;;;;;;;13.88;7.85;;;;;;;6.14;65.82;102534.72;5050047;28;20132;-51
2021/04/16 07:01:43;;;;;;;15.02;8.25;;;;;;;6.23;65.70;102526.75;5067504;28;20045;-47
2021/04/16 07:04:32;;;;;;;20.58;6.45;;;;;;;6.33;65.15;102540.53;5041973;28;20052;-46
2021/04/16 07:07:02;;;;;;;17.25;7.70;;;;;;;6.43;65.00;102527.63;5063276;28;20566;-47
2021/04/16 07:09:32;;;;;;;11.25;7.20;;;;;;;6.52;64.65;102523.19;5062264;28;20044;-46
2021/04/16 07:12:13;;;;;;;18.15;7.75;;;;;;;6.61;64.56;102524.31;5070319;28;20044;-47
2021/04/16 07:14:56;;;;;;;15.35;7.47;;;;;;;6.72;64.56;102528.69;5051707;28;20072;-48
2021/04/16 07:17:24;;;;;;;;;;;;;;;6.82;64.17;102530.63;5054634;28;20041;-49
2021/04/16 07:19:51;;;;;;;16.23;6.72;;;;;;;6.94;64.24;102522.06;5059551;28;19924;-47
2021/04/16 07:22:25;;;;;;;13.52;6.07;;;;;;;7.06;63.82;102528.13;5068789;28;20431;-48
2021/04/16 07:24:53;;;;;;;11.93;5.60;;;;;;;7.17;63.57;102527.81;5071659;28;20087;-46
2021/04/16 07:27:44;;;;;;;11.05;5.07;;;;;;;7.30;63.00;102526.41;5059862;28;20120;-48
2021/04/16 07:30:36;;;;;;;9.45;5.63;;;;;;;7.48;61.97;102530.47;5051520;28;20577;-46
2021/04/16 07:33:08;;;;;;;5.68;3.97;;;;;;;7.61;62.58;102535.38;5062031;28;20041;-47
2021/04/16 07:35:35;;;;;;;;;;;;;;;7.70;61.57;102537.28;5052296;28;20466;-50
2021/04/16 07:38:12;;;;;;;11.60;4.32;;;;;;;7.78;61.67;102538.63;5063378;28;19943;-49
2021/04/16 07:40:44;;;;;;;8.70;5.07;;;;;;;7.89;61.89;102538.28;5050537;28;20040;-47
2021/04/16 07:43:43;;;;;;;9.45;4.93;;;;;;;8.03;61.22;102545.94;5059398;28;20485;-48
2021/04/16 07:46:27;;;;;;;10.80;5.07;;;;;;;8.17;61.32;102542.28;5049134;28;20131;-49
2021/04/16 07:49:16;;;;;;;14.98;4.57;;;;;;;8.33;60.19;102545.78;5055490;28;20055;-49
2021/04/16 07:51:46;;;;;;;12.68;6.72;;;;;;;8.47;60.67;102546.81;5077629;28;20036;-50
2021/04/16 07:54:22;;;;;;;11.60;3.63;;;;;;;8.63;60.78;102550.25;5062510;28;20045;-47
2021/04/16 07:57:16;;;;;;;7.55;4.22;;;;;;;8.77;60.03;102552.06;5048824;28;20049;-49
2021/04/16 07:59:56;;;;;;;15.05;4.25;;;;;;;8.91;60.25;102552.22;5054117;28;20036;-50
2021/04/16 08:02:30;;;;;;;16.35;4.03;;;;;;;9.04;59.94;102555.13;5048247;28;20068;-49
2021/04/16 08:04:57;;;;;;;6.50;3.40;;;;;;;9.14;59.90;102554.19;5049503;28;20094;-49
2021/04/16 08:07:31;;;;;;;8.77;3.00;;;;;;;9.23;59.36;102559.94;5051469;28;20509;-49
2021/04/16 08:09:59;;;;;;;8.30;3.45;;;;;;;9.34;59.46;102561.47;5066840;28;20094;-52
2021/04/16 08:12:27;;;;;;;5.78;2.33;;;;;;;9.43;59.46;102571.59;5058472;28;21029;-52
2021/04/16 08:15:18;;;;;;;10.15;4.38;;;;;;;9.52;57.81;102557.94;5049799;28;20473;-48
2021/04/16 08:17:45;;;;;;;7.50;2.85;;;;;;;9.61;59.63;102550.66;5046998;28;20872;-50
2021/04/16 08:20:21;;;;;;;6.35;2.65;;;;;;;9.70;57.95;102555.25;5047049;28;20059;-50
2021/04/16 08:23:07;;;;;;;6.32;3.03;;;;;;;9.86;59.09;102552.28;5049260;28;20083;-45
2021/04/16 08:25:40;;;;;;;5.03;2.88;;;;;;;9.97;59.06;102553.78;5048251;28;20817;-47
2021/04/16 08:28:16;;;;;;;8.35;3.25;;;;;;;10.09;59.19;102552.22;5056276;28;20416;-47
2021/04/16 08:31:09;;;;;;;4.82;3.17;;;;;;;10.18;58.11;102555.19;5051827;28;20567;-48
2021/04/16 08:33:45;;;;;;;6.55;3.30;;;;;;;10.28;59.33;102553.09;5051896;28;20041;-46
2021/04/16 08:36:41;;;;;;;7.70;3.13;;;;;;;10.45;57.82;102551.75;5060507;28;20094;-45
2021/04/16 08:39:25;;;;;;;4.43;3.30;;;;;;;10.69;58.43;102549.69;5061438;28;20051;-47
2021/04/16 08:42:09;;;;;;;9.27;3.20;;;;;;;11.00;58.65;102542.50;5048989;28;20090;-50
2021/04/16 08:44:49;;;;;;;6.45;3.20;;;;;;;11.43;56.71;102543.09;5049782;28;20037;-46
2021/04/16 08:47:44;;;;;;;6.68;3.42;;;;;;;12.02;55.42;102542.97;5060600;28;20128;-46
2021/04/16 08:50:10;;;;;;;6.75;2.80;;;;;;;12.63;56.51;102547.91;5068945;28;20080;-48
2021/04/16 08:52:45;;;;;;;5.78;2.97;;;;;;;13.19;54.74;102549.28;5060714;28;20041;-50
2021/04/16 08:55:12;;;;;;;5.28;2.88;;;;;;;13.61;54.26;102543.09;5059537;28;20045;-45
2021/04/16 08:57:51;;;;;;;5.25;3.03;;;;;;;14.06;52.51;102532.56;5070625;28;20049;-45
2021/04/16 09:00:44;;;;;;;4.93;2.88;;;;;;;14.45;51.22;102540.03;5052275;28;20148;-49
2021/04/16 09:03:54;;;;;;;5.80;2.80;;;;;;;14.85;50.36;102538.66;5055699;28;20098;-48
2021/04/16 09:06:29;;;;;;;5.78;3.22;;;;;;;15.32;50.04;102536.75;5061095;28;20047;-46
2021/04/16 09:08:57;;;;;;;6.13;2.92;;;;;;;15.66;50.25;102530.22;5056209;28;20140;-46
2021/04/16 09:11:46;;;;;;;;;;;;;;;16.03;49.52;102531.31;5059122;28;20063;-46
2021/04/16 09:14:15;;;;;;;5.68;3.15;;;;;;;16.34;49.62;102532.53;5067370;28;19986;-47
2021/04/16 09:16:49;;;;;;;5.88;3.17;;;;;;;16.63;48.67;102531.66;5063602;28;20078;-47
2021/04/16 09:19:24;;;;;;;7.75;3.13;;;;;;;16.90;47.37;102533.88;5058482;28;20045;-56
2021/04/16 09:22:06;;;;;;;8.93;3.10;;;;;;;17.27;45.97;102528.38;5063441;28;20073;-52
2021/04/16 09:24:41;;;;;;;7.38;2.65;;;;;;;17.28;44.50;102525.22;5060513;28;20057;-50
2021/04/16 09:27:26;;;;;;;8.43;2.83;;;;;;;17.45;44.01;102536.19;5059161;28;20055;-50
2021/04/16 09:29:59;;;;;;;8.60;3.85;;;;;;;17.30;44.78;102520.09;5059005;28;20051;-49
2021/04/16 09:32:45;;;;;;;5.28;2.90;;;;;;;17.44;43.78;102528.16;5051194;28;20834;-46
2021/04/16 09:35:18;;;;;;;6.57;3.10;;;;;;;17.33;44.17;102516.59;5052397;28;20128;-49
2021/04/16 09:37:49;;;;;;;7.20;3.90;;;;;;;17.38;44.20;102519.19;5065822;28;20056;-50
2021/04/16 09:40:36;;;;;;;5.72;3.72;;;;;;;17.77;44.33;102519.66;5053402;28;20049;-51
2021/04/16 09:43:08;;;;;;;6.45;2.92;;;;;;;17.72;43.04;102514.28;5051359;28;20048;-51
2021/04/16 09:45:44;;;;;;;11.52;4.53;;;;;;;17.76;42.89;102506.84;5054417;28;20048;-49
2021/04/16 09:48:25;;;;;;;5.80;3.30;;;;;;;17.80;42.55;102493.75;5059924;28;20052;-49
2021/04/16 09:50:57;;;;;;;7.72;3.80;;;;;;;17.87;42.74;102505.19;5068158;28;20150;-46
2021/04/16 09:53:32;;;;;;;9.48;5.10;;;;;;;17.79;43.22;102495.72;5053327;28;20037;-47
2021/04/16 09:56:00;;;;;;;8.32;4.55;;;;;;;17.87;43.25;102496.78;5057452;28;20037;-51
2021/04/16 09:58:32;;;;;;;9.23;4.07;;;;;;;17.54;41.73;102492.16;5057611;28;20049;-48
2021/04/16 10:01:06;;;;;;;9.00;4.57;;;;;;;17.24;42.87;102487.88;5053613;28;20045;-51
2021/04/16 10:03:32;;;;;;;9.90;5.25;;;;;;;16.91;43.64;102487.97;5057180;28;20087;-52
2021/04/16 10:06:16;;;;;;;8.60;5.45;;;;;;;16.65;44.03;102490.22;5058224;28;20056;-49
2021/04/16 10:08:45;;;;;;;8.30;4.22;;;;;;;16.57;44.10;102484.69;5070857;28;20505;-51
2021/04/16 10:11:13;;;;;;;7.28;5.47;;;;;;;16.28;44.03;102480.81;5054520;28;20122;-51
2021/04/16 10:13:41;;;;;;;11.52;5.65;;;;;;;15.62;44.53;102479.81;5061497;28;20123;-46
2021/04/16 10:16:21;;;;;;;6.60;5.13;;;;;;;14.57;46.99;102476.06;5060715;28;20049;-46
2021/04/16 10:18:48;;;;;;;6.88;4.75;;;;;;;13.78;47.02;102470.78;5059406;28;20095;-47
2021/04/16 10:21:16;;;;;;;7.82;5.32;;;;;;;13.78;47.71;102473.56;5058120;28;20049;-45
2021/04/16 12:38:07;;;;;;;8.15;3.95;;;;;;;13.55;56.21;102421.97;5071100;28;20041;-50
2021/04/16 12:40:33;;;;;;;8.30;4.25;;;;;;;13.61;56.05;102420.63;5068331;28;20131;-48
2021/04/16 12:43:03;;;;;;;7.30;5.28;;;;;;;13.64;55.80;102422.78;5070322;28;20561;-47
2021/04/16 12:45:30;;;;;;;7.38;4.65;;;;;;;13.61;55.51;102412.28;5060794;28;20052;-49
2021/04/16 12:47:59;;;;;;;9.23;4.93;;;;;;;13.39;55.40;102420.78;5054986;28;20079;-47
2021/04/16 12:50:30;;;;;;;12.13;5.22;;;;;;;13.23;55.60;102414.03;5052766;28;20044;-47
2021/04/16 12:52:57;;;;;;;8.30;4.50;;;;;;;13.16;55.99;102410.88;5091983;28;20040;-48
2021/04/16 12:55:24;;;;;;;9.98;5.82;;;;;;;13.10;56.21;102420.53;5074750;28;20109;-51
2021/04/16 12:57:54;;;;;;;8.15;5.80;;;;;;;12.98;56.80;102423.03;5072148;28;20761;-52
2021/04/16 13:00:23;;;;;;;12.40;5.78;;;;;;;12.94;57.09;102422.88;5071981;28;20704;-51
2021/04/16 13:03:01;;;;;;;6.72;4.72;;;;;;;12.82;57.39;102425.44;5057527;28;20056;-50
2021/04/16 13:05:28;;;;;;;11.95;4.78;;;;;;;12.63;57.01;102434.00;5051714;28;20040;-48
2021/04/16 13:07:54;;;;;;;7.72;5.25;;;;;;;12.70;57.13;102433.56;5051614;28;20064;-50
2021/04/16 13:10:21;;;;;;;11.63;4.65;;;;;;;12.83;56.90;102427.06;5067106;28;20127;-47
2021/04/16 13:12:48;;;;;;;11.13;5.88;;;;;;;12.88;56.96;102424.16;5068313;28;20069;-49
2021/04/16 13:15:16;;;;;;;9.85;5.53;;;;;;;12.92;57.02;102430.69;5069127;28;20137;-49
2021/04/16 13:17:50;;;;;;;14.45;5.90;;;;;;;12.85;57.28;102424.78;5054649;28;20037;-48
2021/04/16 13:20:18;;;;;;;11.13;5.18;;;;;;;12.84;57.18;102428.69;5052312;28;20033;-48
2021/04/16 13:22:45;;;;;;;10.77;5.55;;;;;;;12.84;57.28;102418.41;5073160;28;20076;-46
2021/04/16 13:25:14;;;;;;;12.40;5.03;;;;;;;12.87;56.64;102421.72;5091984;28;20048;-46
2021/04/16 13:27:43;;;;;;;6.47;4.25;;;;;;;12.79;56.58;102418.56;5058486;28;20101;-48
2021/04/16 13:30:11;;;;;;;10.80;5.00;;;;;;;12.75;56.31;102414.78;5070407;28;20351;-48
2021/04/16 13:32:44;;;;;;;8.25;4.95;;;;;;;12.69;55.51;102421.59;5051468;28;20099;-50
2021/04/16 13:35:15;;;;;;;11.90;5.72;;;;;;;12.59;56.09;102413.56;5051829;28;20064;-48
2021/04/16 13:37:42;;;;;;;16.58;7.35;;;;;;;12.50;56.04;102414.63;5052237;28;20099;-49
2021/04/16 13:40:10;;;;;;;14.02;7.47;;;;;;;12.41;55.90;102422.91;5068198;28;20064;-49
2021/04/16 13:42:36;;;;;;;11.20;5.93;;;;;;;12.29;56.15;102419.06;5056460;28;20117;-50
2021/04/16 13:45:05;;;;;;;17.48;7.05;;;;;;;12.17;56.33;102414.91;5050745;28;20498;-49
2021/04/16 13:47:39;;;;;;;18.98;7.07;;;;;;;12.08;56.53;102415.97;5064159;28;20049;-48
2021/04/16 13:50:07;;;;;;;15.85;7.20;;;;;;;12.06;56.46;102396.03;5067626;28;20556;-52
2021/04/16 13:52:34;;;;;;;11.30;6.45;;;;;;;12.08;56.34;102410.41;5069784;28;20041;-52